sensor_id;sensor_type;location;lat;lon;timestamp;P1;durP1;ratioP1;P2;durP2;ratioP2
21213;SDS011;10764;50.850;2.904;2022-11-20T00:00:48;22.27;;;15.50;;
21213;SDS011;10764;50.850;2.904;2022-11-20T00:03:15;22.35;;;15.52;;
21213;SDS011;10764;50.850;2.904;2022-11-20T00:05:43;21.83;;;15.83;;
21213;SDS011;10764;50.850;2.904;2022-11-20T00:08:10;21.30;;;15.30;;
21213;SDS011;10764;50.850;2.904;2022-11-20T00:10:38;22.90;;;15.77;;
21213;SDS011;10764;50.850;2.904;2022-11-20T00:13:05;22.25;;;15.43;;
21213;SDS011;10764;50.850;2.904;2022-11-20T00:15:33;22.73;;;15.88;;
21213;SDS011;10764;50.850;2.904;2022-11-20T00:18:00;22.48;;;15.77;;
21213;SDS011;10764;50.850;2.904;2022-11-20T00:20:27;24.00;;;16.00;;
21213;SDS011;10764;50.850;2.904;2022-11-20T00:22:54;22.25;;;16.00;;
21213;SDS011;10764;50.850;2.904;2022-11-20T00:25:20;23.08;;;15.95;;
21213;SDS011;10764;50.850;2.904;2022-11-20T00:27:47;23.48;;;15.88;;
21213;SDS011;10764;50.850;2.904;2022-11-20T00:30:14;22.52;;;15.70;;
21213;SDS011;10764;50.850;2.904;2022-11-20T00:32:41;24.23;;;15.95;;
21213;SDS011;10764;50.850;2.904;2022-11-20T00:35:08;21.50;;;15.68;;
21213;SDS011;10764;50.850;2.904;2022-11-20T00:37:34;21.63;;;15.57;;
21213;SDS011;10764;50.850;2.904;2022-11-20T00:40:01;23.50;;;16.05;;
21213;SDS011;10764;50.850;2.904;2022-11-20T00:42:28;23.30;;;16.77;;
21213;SDS011;10764;50.850;2.904;2022-11-20T00:44:55;24.45;;;16.20;;
21213;SDS011;10764;50.850;2.904;2022-11-20T00:47:21;23.15;;;16.13;;
21213;SDS011;10764;50.850;2.904;2022-11-20T00:49:48;22.77;;;16.00;;
21213;SDS011;10764;50.850;2.904;2022-11-20T00:52:15;23.58;;;16.38;;
21213;SDS011;10764;50.850;2.904;2022-11-20T00:54:42;24.00;;;16.40;;
21213;SDS011;10764;50.850;2.904;2022-11-20T00:57:08;21.75;;;15.80;;
21213;SDS011;10764;50.850;2.904;2022-11-20T00:59:35;24.40;;;15.97;;
21213;SDS011;10764;50.850;2.904;2022-11-20T01:02:02;21.77;;;15.82;;
21213;SDS011;10764;50.850;2.904;2022-11-20T01:04:29;23.58;;;15.95;;
21213;SDS011;10764;50.850;2.904;2022-11-20T01:06:56;23.15;;;15.90;;
21213;SDS011;10764;50.850;2.904;2022-11-20T01:09:23;24.60;;;15.57;;
21213;SDS011;10764;50.850;2.904;2022-11-20T01:11:49;24.37;;;16.13;;
21213;SDS011;10764;50.850;2.904;2022-11-20T01:14:17;22.88;;;15.30;;
21213;SDS011;10764;50.850;2.904;2022-11-20T01:16:47;21.93;;;15.57;;
21213;SDS011;10764;50.850;2.904;2022-11-20T01:19:17;22.87;;;15.60;;
21213;SDS011;10764;50.850;2.904;2022-11-20T01:21:50;21.50;;;15.48;;
21213;SDS011;10764;50.850;2.904;2022-11-20T01:24:19;22.98;;;16.00;;
21213;SDS011;10764;50.850;2.904;2022-11-20T01:26:48;21.60;;;15.63;;
21213;SDS011;10764;50.850;2.904;2022-11-20T01:29:17;21.27;;;15.07;;
21213;SDS011;10764;50.850;2.904;2022-11-20T01:31:47;22.88;;;15.77;;
21213;SDS011;10764;50.850;2.904;2022-11-20T01:34:16;22.55;;;15.23;;
21213;SDS011;10764;50.850;2.904;2022-11-20T01:36:44;21.38;;;15.02;;
21213;SDS011;10764;50.850;2.904;2022-11-20T01:39:13;22.15;;;15.52;;
21213;SDS011;10764;50.850;2.904;2022-11-20T01:41:42;23.33;;;14.82;;
21213;SDS011;10764;50.850;2.904;2022-11-20T01:49:59;20.90;;;14.68;;
21213;SDS011;10764;50.850;2.904;2022-11-20T01:52:45;21.63;;;15.27;;
21213;SDS011;10764;50.850;2.904;2022-11-20T01:55:22;21.83;;;15.13;;
21213;SDS011;10764;50.850;2.904;2022-11-20T01:57:54;22.77;;;15.13;;
21213;SDS011;10764;50.850;2.904;2022-11-20T02:00:22;21.05;;;14.60;;
21213;SDS011;10764;50.850;2.904;2022-11-20T02:02:59;20.17;;;14.48;;
21213;SDS011;10764;50.850;2.904;2022-11-20T02:08:25;21.05;;;14.55;;
21213;SDS011;10764;50.850;2.904;2022-11-20T02:10:52;21.55;;;14.98;;
21213;SDS011;10764;50.850;2.904;2022-11-20T02:13:19;20.38;;;14.65;;
21213;SDS011;10764;50.850;2.904;2022-11-20T02:16:04;21.50;;;14.52;;
21213;SDS011;10764;50.850;2.904;2022-11-20T02:18:34;22.60;;;15.50;;
21213;SDS011;10764;50.850;2.904;2022-11-20T02:21:05;21.17;;;14.75;;
21213;SDS011;10764;50.850;2.904;2022-11-20T02:26:23;21.10;;;14.88;;
21213;SDS011;10764;50.850;2.904;2022-11-20T02:28:52;21.50;;;15.33;;
21213;SDS011;10764;50.850;2.904;2022-11-20T02:31:20;22.02;;;15.20;;
21213;SDS011;10764;50.850;2.904;2022-11-20T02:33:47;22.40;;;14.93;;
21213;SDS011;10764;50.850;2.904;2022-11-20T02:36:14;23.20;;;15.33;;
21213;SDS011;10764;50.850;2.904;2022-11-20T02:38:42;22.27;;;15.38;;
21213;SDS011;10764;50.850;2.904;2022-11-20T02:41:09;22.92;;;15.48;;
21213;SDS011;10764;50.850;2.904;2022-11-20T02:43:36;23.23;;;15.77;;
21213;SDS011;10764;50.850;2.904;2022-11-20T02:46:03;21.88;;;14.90;;
21213;SDS011;10764;50.850;2.904;2022-11-20T02:48:33;22.60;;;15.70;;
21213;SDS011;10764;50.850;2.904;2022-11-20T02:51:00;24.70;;;15.00;;
21213;SDS011;10764;50.850;2.904;2022-11-20T02:53:27;22.25;;;15.60;;
21213;SDS011;10764;50.850;2.904;2022-11-20T02:55:53;23.38;;;15.63;;
21213;SDS011;10764;50.850;2.904;2022-11-20T02:58:20;23.03;;;15.63;;
21213;SDS011;10764;50.850;2.904;2022-11-20T03:00:49;22.23;;;15.02;;
21213;SDS011;10764;50.850;2.904;2022-11-20T03:03:16;23.25;;;15.93;;
21213;SDS011;10764;50.850;2.904;2022-11-20T03:05:43;23.63;;;16.00;;
21213;SDS011;10764;50.850;2.904;2022-11-20T03:08:09;23.05;;;15.18;;
21213;SDS011;10764;50.850;2.904;2022-11-20T03:10:36;22.33;;;16.02;;
21213;SDS011;10764;50.850;2.904;2022-11-20T03:13:03;22.43;;;15.57;;
21213;SDS011;10764;50.850;2.904;2022-11-20T03:15:30;23.63;;;15.90;;
21213;SDS011;10764;50.850;2.904;2022-11-20T03:17:57;22.52;;;15.57;;
21213;SDS011;10764;50.850;2.904;2022-11-20T03:20:24;22.02;;;15.23;;
21213;SDS011;10764;50.850;2.904;2022-11-20T03:22:50;22.23;;;15.55;;
21213;SDS011;10764;50.850;2.904;2022-11-20T03:25:20;21.83;;;15.50;;
21213;SDS011;10764;50.850;2.904;2022-11-20T03:27:48;23.83;;;15.75;;
21213;SDS011;10764;50.850;2.904;2022-11-20T03:30:15;22.85;;;15.82;;
21213;SDS011;10764;50.850;2.904;2022-11-20T03:32:42;22.23;;;15.57;;
21213;SDS011;10764;50.850;2.904;2022-11-20T03:35:09;22.15;;;15.10;;
21213;SDS011;10764;50.850;2.904;2022-11-20T03:37:36;22.13;;;14.95;;
21213;SDS011;10764;50.850;2.904;2022-11-20T03:40:02;20.98;;;14.73;;
21213;SDS011;10764;50.850;2.904;2022-11-20T03:42:30;22.35;;;15.15;;
21213;SDS011;10764;50.850;2.904;2022-11-20T03:45:20;21.70;;;15.25;;
21213;SDS011;10764;50.850;2.904;2022-11-20T03:47:47;21.30;;;14.37;;
21213;SDS011;10764;50.850;2.904;2022-11-20T03:50:14;21.52;;;15.10;;
21213;SDS011;10764;50.850;2.904;2022-11-20T03:52:41;21.90;;;14.75;;
21213;SDS011;10764;50.850;2.904;2022-11-20T03:55:08;22.88;;;15.30;;
21213;SDS011;10764;50.850;2.904;2022-11-20T03:57:35;20.85;;;14.27;;
21213;SDS011;10764;50.850;2.904;2022-11-20T04:00:04;20.38;;;14.52;;
21213;SDS011;10764;50.850;2.904;2022-11-20T04:02:31;20.42;;;13.90;;
21213;SDS011;10764;50.850;2.904;2022-11-20T04:04:58;21.50;;;14.80;;
21213;SDS011;10764;50.850;2.904;2022-11-20T04:07:25;21.35;;;14.40;;
21213;SDS011;10764;50.850;2.904;2022-11-20T04:09:52;20.58;;;14.57;;
21213;SDS011;10764;50.850;2.904;2022-11-20T04:12:18;20.55;;;14.18;;
21213;SDS011;10764;50.850;2.904;2022-11-20T04:14:45;21.35;;;14.43;;
21213;SDS011;10764;50.850;2.904;2022-11-20T04:17:12;20.65;;;14.27;;
21213;SDS011;10764;50.850;2.904;2022-11-20T04:19:39;20.65;;;14.68;;
21213;SDS011;10764;50.850;2.904;2022-11-20T04:22:06;22.40;;;14.20;;
21213;SDS011;10764;50.850;2.904;2022-11-20T04:24:32;21.27;;;14.32;;
21213;SDS011;10764;50.850;2.904;2022-11-20T04:26:59;20.83;;;14.10;;
21213;SDS011;10764;50.850;2.904;2022-11-20T04:29:26;20.88;;;14.23;;
21213;SDS011;10764;50.850;2.904;2022-11-20T04:31:53;21.15;;;14.48;;
21213;SDS011;10764;50.850;2.904;2022-11-20T04:34:20;20.10;;;14.03;;
21213;SDS011;10764;50.850;2.904;2022-11-20T04:36:46;21.33;;;14.15;;
21213;SDS011;10764;50.850;2.904;2022-11-20T04:39:13;22.02;;;14.13;;
21213;SDS011;10764;50.850;2.904;2022-11-20T04:41:41;20.02;;;13.68;;
21213;SDS011;10764;50.850;2.904;2022-11-20T04:44:08;21.73;;;14.07;;
21213;SDS011;10764;50.850;2.904;2022-11-20T04:46:37;20.80;;;13.90;;
21213;SDS011;10764;50.850;2.904;2022-11-20T04:49:06;18.60;;;13.27;;
21213;SDS011;10764;50.850;2.904;2022-11-20T04:51:34;20.42;;;13.85;;
21213;SDS011;10764;50.850;2.904;2022-11-20T04:54:01;18.60;;;13.00;;
21213;SDS011;10764;50.850;2.904;2022-11-20T04:56:28;19.83;;;13.25;;
21213;SDS011;10764;50.850;2.904;2022-11-20T04:58:55;20.10;;;13.30;;
21213;SDS011;10764;50.850;2.904;2022-11-20T05:01:22;18.30;;;12.67;;
21213;SDS011;10764;50.850;2.904;2022-11-20T05:03:50;18.70;;;12.97;;
21213;SDS011;10764;50.850;2.904;2022-11-20T05:06:18;19.55;;;12.68;;
21213;SDS011;10764;50.850;2.904;2022-11-20T05:08:48;17.83;;;12.57;;
21213;SDS011;10764;50.850;2.904;2022-11-20T05:11:17;18.98;;;13.10;;
21213;SDS011;10764;50.850;2.904;2022-11-20T05:13:45;18.03;;;12.60;;
21213;SDS011;10764;50.850;2.904;2022-11-20T05:16:16;18.65;;;12.10;;
21213;SDS011;10764;50.850;2.904;2022-11-20T05:18:46;17.33;;;11.88;;
21213;SDS011;10764;50.850;2.904;2022-11-20T05:21:13;17.38;;;12.73;;
21213;SDS011;10764;50.850;2.904;2022-11-20T05:23:41;16.13;;;11.68;;
21213;SDS011;10764;50.850;2.904;2022-11-20T05:26:12;17.55;;;11.73;;
21213;SDS011;10764;50.850;2.904;2022-11-20T05:28:43;17.88;;;12.02;;
21213;SDS011;10764;50.850;2.904;2022-11-20T05:31:12;16.73;;;11.63;;
21213;SDS011;10764;50.850;2.904;2022-11-20T05:33:41;17.45;;;11.57;;
21213;SDS011;10764;50.850;2.904;2022-11-20T05:36:09;16.00;;;11.25;;
21213;SDS011;10764;50.850;2.904;2022-11-20T05:38:37;16.93;;;11.57;;
21213;SDS011;10764;50.850;2.904;2022-11-20T05:41:17;15.25;;;11.07;;
21213;SDS011;10764;50.850;2.904;2022-11-20T05:43:45;16.15;;;10.45;;
21213;SDS011;10764;50.850;2.904;2022-11-20T05:46:14;15.73;;;10.87;;
21213;SDS011;10764;50.850;2.904;2022-11-20T05:48:43;15.02;;;10.70;;
21213;SDS011;10764;50.850;2.904;2022-11-20T05:51:12;14.82;;;10.40;;
21213;SDS011;10764;50.850;2.904;2022-11-20T05:53:41;15.20;;;10.30;;
21213;SDS011;10764;50.850;2.904;2022-11-20T05:56:14;14.10;;;9.90;;
21213;SDS011;10764;50.850;2.904;2022-11-20T05:58:43;13.88;;;10.35;;
21213;SDS011;10764;50.850;2.904;2022-11-20T06:03:44;15.07;;;10.75;;
21213;SDS011;10764;50.850;2.904;2022-11-20T06:06:14;13.93;;;10.15;;
21213;SDS011;10764;50.850;2.904;2022-11-20T06:08:41;14.68;;;9.80;;
21213;SDS011;10764;50.850;2.904;2022-11-20T06:11:09;14.85;;;10.00;;
21213;SDS011;10764;50.850;2.904;2022-11-20T06:13:37;12.85;;;9.45;;
21213;SDS011;10764;50.850;2.904;2022-11-20T06:16:08;14.30;;;9.68;;
21213;SDS011;10764;50.850;2.904;2022-11-20T06:18:35;12.40;;;9.48;;
21213;SDS011;10764;50.850;2.904;2022-11-20T06:21:09;13.80;;;9.77;;
21213;SDS011;10764;50.850;2.904;2022-11-20T06:23:41;12.00;;;8.93;;
21213;SDS011;10764;50.850;2.904;2022-11-20T06:26:09;13.23;;;9.40;;
21213;SDS011;10764;50.850;2.904;2022-11-20T06:28:38;12.57;;;9.30;;
21213;SDS011;10764;50.850;2.904;2022-11-20T06:31:06;12.85;;;8.95;;
21213;SDS011;10764;50.850;2.904;2022-11-20T06:33:33;12.20;;;9.23;;
21213;SDS011;10764;50.850;2.904;2022-11-20T06:36:00;12.15;;;9.07;;
21213;SDS011;10764;50.850;2.904;2022-11-20T06:38:34;11.45;;;8.50;;
21213;SDS011;10764;50.850;2.904;2022-11-20T06:41:00;11.63;;;8.45;;
21213;SDS011;10764;50.850;2.904;2022-11-20T06:43:29;11.73;;;8.88;;
21213;SDS011;10764;50.850;2.904;2022-11-20T06:45:56;11.65;;;8.73;;
21213;SDS011;10764;50.850;2.904;2022-11-20T06:48:25;12.43;;;8.30;;
21213;SDS011;10764;50.850;2.904;2022-11-20T06:50:53;11.77;;;8.40;;
21213;SDS011;10764;50.850;2.904;2022-11-20T06:53:21;10.50;;;8.30;;
21213;SDS011;10764;50.850;2.904;2022-11-20T06:55:50;11.35;;;8.52;;
21213;SDS011;10764;50.850;2.904;2022-11-20T06:58:17;10.48;;;8.38;;
21213;SDS011;10764;50.850;2.904;2022-11-20T07:00:44;10.63;;;8.15;;
21213;SDS011;10764;50.850;2.904;2022-11-20T07:03:11;11.25;;;8.20;;
21213;SDS011;10764;50.850;2.904;2022-11-20T07:05:38;10.35;;;7.88;;
21213;SDS011;10764;50.850;2.904;2022-11-20T07:08:06;10.57;;;7.78;;
21213;SDS011;10764;50.850;2.904;2022-11-20T07:10:34;10.88;;;8.32;;
21213;SDS011;10764;50.850;2.904;2022-11-20T07:13:01;10.48;;;7.70;;
21213;SDS011;10764;50.850;2.904;2022-11-20T07:15:28;11.20;;;8.43;;
21213;SDS011;10764;50.850;2.904;2022-11-20T07:17:58;10.50;;;7.97;;
21213;SDS011;10764;50.850;2.904;2022-11-20T07:20:25;11.15;;;8.00;;
21213;SDS011;10764;50.850;2.904;2022-11-20T07:22:55;11.35;;;8.13;;
21213;SDS011;10764;50.850;2.904;2022-11-20T07:25:27;10.63;;;7.80;;
21213;SDS011;10764;50.850;2.904;2022-11-20T07:27:57;11.68;;;7.60;;
21213;SDS011;10764;50.850;2.904;2022-11-20T07:30:25;11.17;;;7.50;;
21213;SDS011;10764;50.850;2.904;2022-11-20T07:32:55;10.45;;;7.80;;
21213;SDS011;10764;50.850;2.904;2022-11-20T07:35:23;9.65;;;7.47;;
21213;SDS011;10764;50.850;2.904;2022-11-20T07:37:50;10.50;;;7.55;;
21213;SDS011;10764;50.850;2.904;2022-11-20T07:40:17;9.65;;;7.40;;
21213;SDS011;10764;50.850;2.904;2022-11-20T07:42:51;9.55;;;7.35;;
21213;SDS011;10764;50.850;2.904;2022-11-20T07:45:19;10.82;;;7.55;;
21213;SDS011;10764;50.850;2.904;2022-11-20T07:47:47;9.85;;;7.30;;
21213;SDS011;10764;50.850;2.904;2022-11-20T07:50:14;9.70;;;7.30;;
21213;SDS011;10764;50.850;2.904;2022-11-20T07:52:42;10.83;;;8.03;;
21213;SDS011;10764;50.850;2.904;2022-11-20T07:55:09;14.13;;;7.93;;
21213;SDS011;10764;50.850;2.904;2022-11-20T07:57:36;19.65;;;8.02;;
21213;SDS011;10764;50.850;2.904;2022-11-20T08:00:04;20.33;;;7.80;;
21213;SDS011;10764;50.850;2.904;2022-11-20T08:02:37;19.48;;;7.70;;
21213;SDS011;10764;50.850;2.904;2022-11-20T08:05:05;18.55;;;8.07;;
21213;SDS011;10764;50.850;2.904;2022-11-20T08:07:37;16.17;;;7.57;;
21213;SDS011;10764;50.850;2.904;2022-11-20T08:10:05;29.27;;;8.70;;
21213;SDS011;10764;50.850;2.904;2022-11-20T08:12:33;21.63;;;7.68;;
21213;SDS011;10764;50.850;2.904;2022-11-20T08:15:35;22.77;;;7.73;;
21213;SDS011;10764;50.850;2.904;2022-11-20T08:18:08;23.35;;;7.60;;
21213;SDS011;10764;50.850;2.904;2022-11-20T08:21:01;30.33;;;8.23;;
21213;SDS011;10764;50.850;2.904;2022-11-20T08:23:28;21.70;;;7.77;;
21213;SDS011;10764;50.850;2.904;2022-11-20T08:25:56;19.27;;;7.53;;
21213;SDS011;10764;50.850;2.904;2022-11-20T08:28:22;13.47;;;6.93;;
21213;SDS011;10764;50.850;2.904;2022-11-20T08:30:49;19.73;;;7.65;;
21213;SDS011;10764;50.850;2.904;2022-11-20T08:33:17;16.92;;;7.22;;
21213;SDS011;10764;50.850;2.904;2022-11-20T08:35:44;17.52;;;7.60;;
21213;SDS011;10764;50.850;2.904;2022-11-20T08:38:11;14.55;;;6.70;;
21213;SDS011;10764;50.850;2.904;2022-11-20T08:40:38;14.73;;;6.70;;
21213;SDS011;10764;50.850;2.904;2022-11-20T08:43:06;13.10;;;6.68;;
21213;SDS011;10764;50.850;2.904;2022-11-20T08:45:33;12.88;;;6.43;;
21213;SDS011;10764;50.850;2.904;2022-11-20T08:48:01;11.40;;;6.05;;
21213;SDS011;10764;50.850;2.904;2022-11-20T08:50:29;14.80;;;6.68;;
21213;SDS011;10764;50.850;2.904;2022-11-20T08:53:02;13.60;;;6.85;;
21213;SDS011;10764;50.850;2.904;2022-11-20T08:55:30;12.90;;;6.20;;
21213;SDS011;10764;50.850;2.904;2022-11-20T08:57:56;11.90;;;6.15;;
21213;SDS011;10764;50.850;2.904;2022-11-20T09:00:23;8.90;;;6.13;;
21213;SDS011;10764;50.850;2.904;2022-11-20T09:02:50;13.43;;;6.17;;
21213;SDS011;10764;50.850;2.904;2022-11-20T09:05:18;9.13;;;5.20;;
21213;SDS011;10764;50.850;2.904;2022-11-20T09:07:45;10.20;;;5.80;;
21213;SDS011;10764;50.850;2.904;2022-11-20T09:10:11;12.63;;;5.00;;
21213;SDS011;10764;50.850;2.904;2022-11-20T09:12:54;9.85;;;5.35;;
21213;SDS011;10764;50.850;2.904;2022-11-20T09:15:22;7.88;;;5.13;;
21213;SDS011;10764;50.850;2.904;2022-11-20T09:17:53;7.72;;;5.38;;
21213;SDS011;10764;50.850;2.904;2022-11-20T09:20:21;12.82;;;5.25;;
21213;SDS011;10764;50.850;2.904;2022-11-20T09:22:48;8.75;;;5.18;;
21213;SDS011;10764;50.850;2.904;2022-11-20T09:25:15;8.40;;;5.05;;
21213;SDS011;10764;50.850;2.904;2022-11-20T09:27:42;9.88;;;5.28;;
21213;SDS011;10764;50.850;2.904;2022-11-20T09:30:12;7.43;;;4.45;;
21213;SDS011;10764;50.850;2.904;2022-11-20T09:32:42;7.65;;;4.30;;
21213;SDS011;10764;50.850;2.904;2022-11-20T09:35:09;9.07;;;4.47;;
21213;SDS011;10764;50.850;2.904;2022-11-20T09:37:37;6.43;;;4.38;;
21213;SDS011;10764;50.850;2.904;2022-11-20T09:40:04;6.93;;;4.20;;
21213;SDS011;10764;50.850;2.904;2022-11-20T09:53:46;8.07;;;4.05;;
21213;SDS011;10764;50.850;2.904;2022-11-20T09:56:22;6.83;;;3.77;;
21213;SDS011;10764;50.850;2.904;2022-11-20T09:58:50;7.13;;;3.67;;
21213;SDS011;10764;50.850;2.904;2022-11-20T10:01:24;5.22;;;3.50;;
21213;SDS011;10764;50.850;2.904;2022-11-20T10:04:00;6.63;;;3.50;;
21213;SDS011;10764;50.850;2.904;2022-11-20T10:06:39;6.75;;;3.40;;
21213;SDS011;10764;50.850;2.904;2022-11-20T10:09:53;7.47;;;3.33;;
21213;SDS011;10764;50.850;2.904;2022-11-20T10:18:14;5.72;;;3.30;;
21213;SDS011;10764;50.850;2.904;2022-11-20T10:20:53;4.78;;;3.00;;
21213;SDS011;10764;50.850;2.904;2022-11-20T10:26:31;5.78;;;3.05;;
21213;SDS011;10764;50.850;2.904;2022-11-20T10:29:19;5.10;;;3.22;;
21213;SDS011;10764;50.850;2.904;2022-11-20T10:31:57;3.83;;;2.65;;
21213;SDS011;10764;50.850;2.904;2022-11-20T10:37:03;4.03;;;2.50;;
21213;SDS011;10764;50.850;2.904;2022-11-20T10:42:26;4.72;;;2.63;;
21213;SDS011;10764;50.850;2.904;2022-11-20T10:48:43;3.67;;;2.53;;
21213;SDS011;10764;50.850;2.904;2022-11-20T11:02:01;4.75;;;2.30;;
21213;SDS011;10764;50.850;2.904;2022-11-20T11:04:44;5.47;;;2.60;;
21213;SDS011;10764;50.850;2.904;2022-11-20T11:10:12;4.03;;;2.45;;
21213;SDS011;10764;50.850;2.904;2022-11-20T11:12:49;3.55;;;2.28;;
21213;SDS011;10764;50.850;2.904;2022-11-20T11:17:54;4.07;;;2.05;;
21213;SDS011;10764;50.850;2.904;2022-11-20T11:20:22;4.30;;;2.35;;
21213;SDS011;10764;50.850;2.904;2022-11-20T11:22:52;5.27;;;2.57;;
21213;SDS011;10764;50.850;2.904;2022-11-20T11:30:43;4.43;;;2.30;;
21213;SDS011;10764;50.850;2.904;2022-11-20T11:33:11;4.82;;;2.40;;
21213;SDS011;10764;50.850;2.904;2022-11-20T11:35:46;3.60;;;2.00;;
21213;SDS011;10764;50.850;2.904;2022-11-20T11:38:19;3.80;;;2.00;;
21213;SDS011;10764;50.850;2.904;2022-11-20T11:40:50;3.97;;;2.03;;
21213;SDS011;10764;50.850;2.904;2022-11-20T11:43:22;4.00;;;2.10;;
21213;SDS011;10764;50.850;2.904;2022-11-20T11:46:27;4.78;;;2.00;;
21213;SDS011;10764;50.850;2.904;2022-11-20T12:05:21;39.58;;;15.50;;
21213;SDS011;10764;50.850;2.904;2022-11-20T12:07:57;27.40;;;10.43;;
21213;SDS011;10764;50.850;2.904;2022-11-20T12:13:28;28.15;;;10.35;;
21213;SDS011;10764;50.850;2.904;2022-11-20T12:16:07;26.13;;;9.10;;
21213;SDS011;10764;50.850;2.904;2022-11-20T12:18:39;22.95;;;8.80;;
21213;SDS011;10764;50.850;2.904;2022-11-20T12:21:12;22.50;;;8.80;;
21213;SDS011;10764;50.850;2.904;2022-11-20T12:34:47;18.98;;;7.13;;
21213;SDS011;10764;50.850;2.904;2022-11-20T12:37:39;19.33;;;6.88;;
21213;SDS011;10764;50.850;2.904;2022-11-20T12:43:01;30.05;;;10.90;;
21213;SDS011;10764;50.850;2.904;2022-11-20T12:48:37;37.85;;;13.48;;
21213;SDS011;10764;50.850;2.904;2022-11-20T12:57:09;33.35;;;11.77;;
21213;SDS011;10764;50.850;2.904;2022-11-20T13:00:10;36.92;;;12.88;;
21213;SDS011;10764;50.850;2.904;2022-11-20T13:02:44;33.90;;;12.97;;
21213;SDS011;10764;50.850;2.904;2022-11-20T13:05:23;32.50;;;11.03;;
21213;SDS011;10764;50.850;2.904;2022-11-20T13:07:51;33.35;;;11.85;;
21213;SDS011;10764;50.850;2.904;2022-11-20T13:13:16;27.95;;;10.98;;
21213;SDS011;10764;50.850;2.904;2022-11-20T13:18:25;28.75;;;10.88;;
21213;SDS011;10764;50.850;2.904;2022-11-20T13:20:53;28.25;;;10.13;;
21213;SDS011;10764;50.850;2.904;2022-11-20T13:23:23;27.02;;;10.63;;
21213;SDS011;10764;50.850;2.904;2022-11-20T13:26:02;24.52;;;9.77;;
21213;SDS011;10764;50.850;2.904;2022-11-20T13:28:41;28.92;;;9.80;;
21213;SDS011;10764;50.850;2.904;2022-11-20T13:31:25;26.67;;;9.52;;
21213;SDS011;10764;50.850;2.904;2022-11-20T13:33:56;23.75;;;9.27;;
21213;SDS011;10764;50.850;2.904;2022-11-20T13:36:26;23.02;;;8.25;;
21213;SDS011;10764;50.850;2.904;2022-11-20T13:38:54;21.88;;;8.38;;
21213;SDS011;10764;50.850;2.904;2022-11-20T13:41:32;23.33;;;8.38;;
21213;SDS011;10764;50.850;2.904;2022-11-20T13:44:09;21.33;;;8.37;;
21213;SDS011;10764;50.850;2.904;2022-11-20T13:46:40;21.20;;;8.10;;
21213;SDS011;10764;50.850;2.904;2022-11-20T13:49:14;20.13;;;7.75;;
21213;SDS011;10764;50.850;2.904;2022-11-20T13:52:02;19.02;;;7.45;;
21213;SDS011;10764;50.850;2.904;2022-11-20T14:00:27;17.58;;;7.07;;
21213;SDS011;10764;50.850;2.904;2022-11-20T14:03:09;19.38;;;7.20;;
21213;SDS011;10764;50.850;2.904;2022-11-20T14:05:53;17.73;;;6.63;;
21213;SDS011;10764;50.850;2.904;2022-11-20T14:08:27;16.27;;;5.97;;
21213;SDS011;10764;50.850;2.904;2022-11-20T14:11:21;16.77;;;6.38;;
21213;SDS011;10764;50.850;2.904;2022-11-20T14:14:13;15.50;;;5.60;;
21213;SDS011;10764;50.850;2.904;2022-11-20T14:16:42;13.10;;;5.65;;
21213;SDS011;10764;50.850;2.904;2022-11-20T14:21:52;13.07;;;5.03;;
21213;SDS011;10764;50.850;2.904;2022-11-20T14:24:42;15.07;;;5.15;;
21213;SDS011;10764;50.850;2.904;2022-11-20T14:27:19;13.85;;;4.85;;
21213;SDS011;10764;50.850;2.904;2022-11-20T14:29:48;13.10;;;4.60;;
21213;SDS011;10764;50.850;2.904;2022-11-20T14:32:17;11.88;;;4.60;;
21213;SDS011;10764;50.850;2.904;2022-11-20T14:34:46;12.27;;;4.00;;
21213;SDS011;10764;50.850;2.904;2022-11-20T14:37:23;9.47;;;4.27;;
21213;SDS011;10764;50.850;2.904;2022-11-20T14:39:54;11.70;;;3.80;;
21213;SDS011;10764;50.850;2.904;2022-11-20T14:42:22;9.95;;;3.67;;
21213;SDS011;10764;50.850;2.904;2022-11-20T14:44:51;10.50;;;3.90;;
21213;SDS011;10764;50.850;2.904;2022-11-20T14:47:23;9.70;;;3.70;;
21213;SDS011;10764;50.850;2.904;2022-11-20T14:49:52;10.40;;;3.63;;
21213;SDS011;10764;50.850;2.904;2022-11-20T14:52:21;10.80;;;3.60;;
21213;SDS011;10764;50.850;2.904;2022-11-20T14:54:54;8.93;;;3.15;;
21213;SDS011;10764;50.850;2.904;2022-11-20T14:57:31;9.52;;;3.38;;
21213;SDS011;10764;50.850;2.904;2022-11-20T15:00:18;11.00;;;3.50;;
21213;SDS011;10764;50.850;2.904;2022-11-20T15:02:50;9.77;;;3.20;;
21213;SDS011;10764;50.850;2.904;2022-11-20T15:05:21;9.20;;;2.90;;
21213;SDS011;10764;50.850;2.904;2022-11-20T15:08:03;7.80;;;2.85;;
21213;SDS011;10764;50.850;2.904;2022-11-20T15:10:34;8.93;;;2.80;;
21213;SDS011;10764;50.850;2.904;2022-11-20T15:13:11;10.23;;;3.15;;
21213;SDS011;10764;50.850;2.904;2022-11-20T15:15:45;8.60;;;2.70;;
21213;SDS011;10764;50.850;2.904;2022-11-20T15:18:19;8.05;;;2.63;;
21213;SDS011;10764;50.850;2.904;2022-11-20T15:20:48;6.67;;;2.40;;
21213;SDS011;10764;50.850;2.904;2022-11-20T15:23:16;8.27;;;2.92;;
21213;SDS011;10764;50.850;2.904;2022-11-20T15:25:45;7.32;;;2.47;;
21213;SDS011;10764;50.850;2.904;2022-11-20T15:28:17;7.03;;;2.88;;
21213;SDS011;10764;50.850;2.904;2022-11-20T15:30:51;9.23;;;2.85;;
21213;SDS011;10764;50.850;2.904;2022-11-20T15:33:18;7.70;;;2.70;;
21213;SDS011;10764;50.850;2.904;2022-11-20T15:35:45;6.65;;;2.47;;
21213;SDS011;10764;50.850;2.904;2022-11-20T15:38:12;7.38;;;2.63;;
21213;SDS011;10764;50.850;2.904;2022-11-20T15:40:39;6.88;;;2.63;;
21213;SDS011;10764;50.850;2.904;2022-11-20T15:43:06;7.75;;;2.40;;
21213;SDS011;10764;50.850;2.904;2022-11-20T15:48:11;6.17;;;2.10;;
21213;SDS011;10764;50.850;2.904;2022-11-20T15:50:52;6.28;;;2.03;;
21213;SDS011;10764;50.850;2.904;2022-11-20T15:53:39;6.90;;;2.20;;
21213;SDS011;10764;50.850;2.904;2022-11-20T15:56:13;6.22;;;1.92;;
21213;SDS011;10764;50.850;2.904;2022-11-20T15:58:40;5.82;;;2.22;;
21213;SDS011;10764;50.850;2.904;2022-11-20T16:01:11;7.18;;;2.33;;
21213;SDS011;10764;50.850;2.904;2022-11-20T16:03:39;6.95;;;1.85;;
21213;SDS011;10764;50.850;2.904;2022-11-20T16:06:06;7.15;;;2.10;;
21213;SDS011;10764;50.850;2.904;2022-11-20T16:08:33;6.65;;;2.05;;
21213;SDS011;10764;50.850;2.904;2022-11-20T16:11:00;7.57;;;2.05;;
21213;SDS011;10764;50.850;2.904;2022-11-20T16:13:27;5.82;;;2.00;;
21213;SDS011;10764;50.850;2.904;2022-11-20T16:18:47;8.35;;;2.25;;
21213;SDS011;10764;50.850;2.904;2022-11-20T16:21:14;5.45;;;1.85;;
21213;SDS011;10764;50.850;2.904;2022-11-20T16:23:42;5.60;;;1.77;;
21213;SDS011;10764;50.850;2.904;2022-11-20T16:26:09;4.30;;;1.60;;
21213;SDS011;10764;50.850;2.904;2022-11-20T16:28:40;5.25;;;1.80;;
21213;SDS011;10764;50.850;2.904;2022-11-20T16:31:17;6.55;;;1.70;;
21213;SDS011;10764;50.850;2.904;2022-11-20T16:33:48;6.28;;;2.20;;
21213;SDS011;10764;50.850;2.904;2022-11-20T16:36:17;5.20;;;1.88;;
21213;SDS011;10764;50.850;2.904;2022-11-20T16:38:45;5.75;;;1.77;;
21213;SDS011;10764;50.850;2.904;2022-11-20T16:41:12;5.53;;;2.10;;
21213;SDS011;10764;50.850;2.904;2022-11-20T16:43:45;6.25;;;1.98;;
21213;SDS011;10764;50.850;2.904;2022-11-20T16:46:13;5.60;;;1.98;;
21213;SDS011;10764;50.850;2.904;2022-11-20T16:48:41;4.18;;;1.50;;
21213;SDS011;10764;50.850;2.904;2022-11-20T16:51:08;5.88;;;1.90;;
21213;SDS011;10764;50.850;2.904;2022-11-20T16:53:37;7.60;;;2.10;;
21213;SDS011;10764;50.850;2.904;2022-11-20T16:56:08;4.93;;;1.67;;
21213;SDS011;10764;50.850;2.904;2022-11-20T16:58:42;6.57;;;2.15;;